Terminal Aerodrome Forecast
Issued by NWS

Home | Current Version | Previous Version | Text Only | Print | Product List | Glossary On
Versions: 1 2 3 4 5 6 7 8 9 10 11 12 13 14 15
027
FTUS46 KSEW 252320
TAFCLM
TAF
KCLM 252320Z 2600/2624 32010KT P6SM VCSH BKN050
     FM260400 30012KT P6SM -SHRA OVC040
     FM260800 VRB04KT 5SM -RASN BR BKN015 OVC030
      TEMPO 2608/2612 3SM -SN BR OVC012
     FM261700 04006KT P6SM -SHSN BKN025
     FM262200 04010KT P6SM VCSH BKN040=

USA.gov is the U.S. government's official web portal to all federal, state and local government web resources and services.